Time;durP1;ratioP1;P1;durP2;ratioP2;P2;SDS_P1;SDS_P2;PMS_P1;PMS_P2;Temp;Humidity;BMP_temperature;BMP_pressure;BME280_temperature;BME280_humidity;BME280_pressure;Samples;Min_cycle;Max_cycle;Signal;HPM_P1;HPM_P2
2023/07/19 00:00:20;;;;;;;0.85;0.45;;;17.10;99.90;;;;;;5100683;28;20048;-74
2023/07/19 00:02:46;;;;;;;1.05;0.40;;;17.10;99.90;;;;;;5083932;28;20055;-74
2023/07/19 00:05:11;;;;;;;;;;;17.10;99.90;;;;;;5105365;28;20081;-74
2023/07/19 00:07:37;;;;;;;0.40;0.32;;;17.10;99.90;;;;;;5089486;28;19916;-74
2023/07/19 00:10:04;;;;;;;0.35;0.30;;;17.00;99.90;;;;;;5102701;28;20067;-74
2023/07/19 00:12:32;;;;;;;0.30;0.30;;;17.00;1.00;;;;;;5089989;28;20119;-74
2023/07/19 00:14:58;;;;;;;0.30;0.30;;;17.00;1.00;;;;;;5076919;28;20066;-73
2023/07/19 00:17:23;;;;;;;;;;;17.00;1.00;;;;;;5089734;28;20369;-74
2023/07/19 00:19:49;;;;;;;0.40;0.30;;;17.00;1.00;;;;;;5089790;28;19998;-74
2023/07/19 00:22:15;;;;;;;0.40;0.40;;;16.90;11.80;;;;;;5106738;28;20040;-74
2023/07/19 00:24:40;;;;;;;0.40;0.30;;;16.90;14.50;;;;;;5122534;27;20040;-74
2023/07/19 00:27:06;;;;;;;0.98;0.38;;;16.90;43.50;;;;;;5122315;27;20491;-74
2023/07/19 00:29:32;;;;;;;0.60;0.50;;;16.90;92.20;;;;;;5123795;27;20115;-73
2023/07/19 00:31:58;;;;;;;1.08;0.60;;;16.90;99.90;;;;;;5090045;28;20047;-73
2023/07/19 00:34:24;;;;;;;0.35;0.28;;;16.90;99.90;;;;;;5079738;28;20485;-73
2023/07/19 00:36:49;;;;;;;;;;;16.90;99.90;;;;;;5090112;28;20062;-74
2023/07/19 00:39:15;;;;;;;0.70;0.50;;;16.90;99.90;;;;;;5089495;28;20407;-74
2023/07/19 00:41:41;;;;;;;0.73;0.40;;;16.90;99.90;;;;;;5072656;28;20126;-74
2023/07/19 00:44:06;;;;;;;;;;;16.90;99.90;;;;;;5092178;28;20050;-74
2023/07/19 00:46:33;;;;;;;0.75;0.60;;;16.80;99.90;;;;;;5094269;28;19916;-73
2023/07/19 00:48:59;;;;;;;0.40;0.40;;;16.80;99.90;;;;;;5086243;28;20047;-74
2023/07/19 00:51:25;;;;;;;0.35;0.22;;;16.80;99.90;;;;;;5068695;28;20481;-74
2023/07/19 00:53:51;;;;;;;;;;;16.80;99.90;;;;;;5078183;28;20056;-74
2023/07/19 00:56:18;;;;;;;0.40;0.38;;;16.80;99.90;;;;;;5089122;28;19928;-74
2023/07/19 00:58:44;;;;;;;0.70;0.40;;;16.80;99.90;;;;;;5081562;28;20036;-73
2023/07/19 01:01:09;;;;;;;;;;;16.80;99.90;;;;;;5089890;28;20044;-71
2023/07/19 01:03:36;;;;;;;0.55;0.38;;;16.80;99.90;;;;;;5089447;28;20498;-71
2023/07/19 01:06:03;;;;;;;0.30;0.30;;;16.80;99.90;;;;;;5089223;28;20101;-71
2023/07/19 01:08:29;;;;;;;0.68;0.30;;;16.80;99.90;;;;;;5071567;28;20036;-71
2023/07/19 01:10:55;;;;;;;;;;;16.80;1.00;;;;;;5085178;28;20051;-71
2023/07/19 01:13:21;;;;;;;0.65;0.50;;;16.80;1.00;;;;;;5092485;28;20341;-71
2023/07/19 01:15:46;;;;;;;;;;;16.80;1.00;;;;;;5094029;28;20047;-71
2023/07/19 01:18:12;;;;;;;0.60;0.40;;;16.80;1.00;;;;;;5093164;28;20450;-71
2023/07/19 01:20:38;;;;;;;0.63;0.55;;;16.80;1.00;;;;;;5110138;28;20044;-71
2023/07/19 01:23:04;;;;;;;1.08;0.52;;;16.70;1.00;;;;;;5067309;28;20098;-71
2023/07/19 01:25:30;;;;;;;;;;;16.70;1.00;;;;;;5092268;28;20088;-71
2023/07/19 01:27:56;;;;;;;1.23;0.20;;;16.70;1.00;;;;;;5092378;28;20371;-71
2023/07/19 01:30:22;;;;;;;;;;;16.70;1.00;;;;;;5110012;28;20040;-71
2023/07/19 01:32:48;;;;;;;0.38;0.28;;;16.70;1.00;;;;;;5109702;28;19916;-71
2023/07/19 01:35:14;;;;;;;0.43;0.40;;;16.80;4.20;;;;;;5071486;28;20073;-71
2023/07/19 01:37:40;;;;;;;0.30;0.30;;;16.70;8.20;;;;;;5107367;28;20055;-71
2023/07/19 01:40:06;;;;;;;;;;;16.80;6.10;;;;;;5093192;28;20499;-71
2023/07/19 01:42:32;;;;;;;0.50;0.40;;;16.80;1.00;;;;;;5064016;28;19923;-71
2023/07/19 01:44:59;;;;;;;;;;;16.70;1.00;;;;;;5110167;28;20485;-71
2023/07/19 01:47:25;;;;;;;0.45;0.30;;;16.80;1.00;;;;;;5092506;28;20368;-71
2023/07/19 01:49:51;;;;;;;0.30;0.25;;;16.80;8.40;;;;;;5100139;28;20037;-71
2023/07/19 01:52:17;;;;;;;;;;;16.80;16.50;;;;;;5086844;28;20036;-71
2023/07/19 01:54:43;;;;;;;0.30;0.30;;;16.80;25.10;;;;;;5087310;28;19923;-72
2023/07/19 01:57:09;;;;;;;0.47;0.47;;;16.80;37.30;;;;;;5108570;28;20047;-71
2023/07/19 01:59:35;;;;;;;;;;;16.80;75.50;;;;;;5080432;28;20051;-71
2023/07/19 02:02:00;;;;;;;0.55;0.55;;;16.80;60.90;;;;;;5125616;27;19920;-71
2023/07/19 02:04:26;;;;;;;0.50;0.50;;;16.80;84.10;;;;;;5075098;28;20068;-71
2023/07/19 02:06:53;;;;;;;0.80;0.40;;;16.80;59.50;;;;;;5091860;28;20133;-71
2023/07/19 02:09:18;;;;;;;0.50;0.40;;;16.80;65.50;;;;;;5093014;28;20082;-71
2023/07/19 02:11:44;;;;;;;0.40;0.40;;;16.80;86.90;;;;;;5093446;28;20048;-71
2023/07/19 02:14:10;;;;;;;;;;;16.80;80.80;;;;;;5091401;28;20071;-71
2023/07/19 02:16:35;;;;;;;0.55;0.50;;;16.70;92.90;;;;;;5091400;28;19923;-71
2023/07/19 02:19:05;;;;;;;1.00;0.52;;;16.70;96.70;;;;;;5091581;28;20085;-71
2023/07/19 02:21:30;;;;;;;0.35;0.35;;;16.70;94.60;;;;;;5074911;28;20040;-71
2023/07/19 02:23:57;;;;;;;0.43;0.32;;;16.70;97.30;;;;;;5091909;28;20051;-71
2023/07/19 02:26:23;;;;;;;0.50;0.50;;;16.70;99.70;;;;;;5074890;28;20118;-71
2023/07/19 02:28:49;;;;;;;0.82;0.40;;;16.60;99.90;;;;;;5085716;28;20447;-71
2023/07/19 02:31:15;;;;;;;0.30;0.30;;;16.70;99.40;;;;;;5092341;28;20484;-71
2023/07/19 02:33:41;;;;;;;0.73;0.40;;;16.60;93.00;;;;;;5090369;28;20051;-71
2023/07/19 02:36:08;;;;;;;0.60;0.50;;;16.60;97.00;;;;;;5091513;28;20493;-71
2023/07/19 02:38:34;;;;;;;1.30;0.32;;;16.60;99.90;;;;;;5091517;28;20052;-71
2023/07/19 02:41:01;;;;;;;0.63;0.38;;;16.60;99.90;;;;;;5125805;27;20040;-72
2023/07/19 02:43:27;;;;;;;0.40;0.40;;;16.50;99.90;;;;;;5091159;28;20174;-71
2023/07/19 02:45:53;;;;;;;0.60;0.60;;;16.50;99.90;;;;;;5086683;28;20392;-71
2023/07/19 02:48:24;;;;;;;0.95;0.70;;;16.50;99.90;;;;;;5100235;28;20044;-71
2023/07/19 02:50:50;;;;;;;1.17;0.50;;;16.40;99.90;;;;;;5092697;28;20047;-71
2023/07/19 02:53:16;;;;;;;0.45;0.45;;;16.40;99.90;;;;;;5125425;27;20040;-71
2023/07/19 02:55:46;;;;;;;0.93;0.60;;;16.40;99.90;;;;;;5091749;28;20044;-71
2023/07/19 02:58:12;;;;;;;0.70;0.68;;;16.40;99.90;;;;;;5091815;28;20496;-71
2023/07/19 03:00:42;;;;;;;1.20;0.80;;;16.40;99.90;;;;;;5091420;28;20126;-71
2023/07/19 03:03:10;;;;;;;0.77;0.52;;;16.30;99.90;;;;;;5091344;28;20055;-71
2023/07/19 03:05:39;;;;;;;0.60;0.60;;;16.30;99.90;;;;;;5090046;28;20047;-71
2023/07/19 03:08:06;;;;;;;0.60;0.60;;;16.30;99.90;;;;;;5091463;28;20558;-70
2023/07/19 03:10:32;;;;;;;1.05;0.93;;;16.20;99.90;;;;;;5074438;28;20503;-71
2023/07/19 03:12:58;;;;;;;0.98;0.77;;;16.20;99.90;;;;;;5124978;27;20040;-71
2023/07/19 03:15:23;;;;;;;1.00;0.77;;;16.20;99.90;;;;;;5125234;27;20048;-71
2023/07/19 03:17:49;;;;;;;0.95;0.80;;;16.20;99.90;;;;;;5106258;28;20040;-71
2023/07/19 03:20:15;;;;;;;0.70;0.70;;;16.20;99.90;;;;;;5091178;28;20028;-71
2023/07/19 03:22:41;;;;;;;0.90;0.70;;;16.20;99.90;;;;;;5085472;28;20043;-71
2023/07/19 03:25:07;;;;;;;1.20;0.93;;;16.20;99.90;;;;;;5073789;28;20054;-71
2023/07/19 03:27:33;;;;;;;;;;;16.10;99.90;;;;;;5108197;28;20093;-71
2023/07/19 03:29:59;;;;;;;1.50;0.95;;;16.10;99.90;;;;;;5104735;28;19916;-71
2023/07/19 03:32:25;;;;;;;1.73;1.00;;;16.10;99.90;;;;;;5118469;27;20095;-71
2023/07/19 03:34:51;;;;;;;1.23;0.75;;;16.10;99.90;;;;;;5106810;28;20508;-71
2023/07/19 03:37:16;;;;;;;0.65;0.65;;;16.10;99.90;;;;;;5072534;28;20121;-71
2023/07/19 03:39:42;;;;;;;0.73;0.70;;;16.10;99.90;;;;;;5105611;28;20127;-71
2023/07/19 03:42:09;;;;;;;1.15;0.80;;;16.10;99.90;;;;;;5090197;28;20040;-71
2023/07/19 03:44:35;;;;;;;0.73;0.73;;;16.10;99.90;;;;;;5124468;27;20056;-71
2023/07/19 03:47:00;;;;;;;0.60;0.60;;;16.10;99.90;;;;;;5090800;28;20849;-71
2023/07/19 03:49:26;;;;;;;1.02;0.80;;;16.10;99.90;;;;;;5100667;28;20128;-70
2023/07/19 03:51:52;;;;;;;1.45;0.90;;;16.10;99.90;;;;;;5124146;27;20451;-71
2023/07/19 03:54:17;;;;;;;1.27;0.80;;;16.00;99.90;;;;;;5124430;27;20044;-71
2023/07/19 03:56:43;;;;;;;1.10;1.00;;;16.10;99.90;;;;;;5106241;28;20479;-71
2023/07/19 03:59:09;;;;;;;2.35;0.85;;;16.00;99.90;;;;;;5078689;28;20032;-71
2023/07/19 04:01:36;;;;;;;0.88;0.73;;;16.00;99.90;;;;;;5087722;28;20412;-71
2023/07/19 04:04:03;;;;;;;1.08;0.82;;;16.00;99.90;;;;;;5085678;28;20123;-71
2023/07/19 04:06:29;;;;;;;1.38;1.10;;;16.00;99.90;;;;;;5090018;28;20039;-71
2023/07/19 04:08:55;;;;;;;;;;;16.00;99.90;;;;;;5088981;28;20040;-71
2023/07/19 04:11:21;;;;;;;0.85;0.77;;;16.00;99.90;;;;;;5079319;28;20273;-71
2023/07/19 04:13:47;;;;;;;1.52;1.08;;;16.00;99.90;;;;;;5070637;28;20160;-71
2023/07/19 04:16:12;;;;;;;1.42;0.90;;;16.00;99.90;;;;;;5086135;28;20038;-71
2023/07/19 04:18:38;;;;;;;1.40;0.80;;;15.90;99.90;;;;;;5084747;28;20044;-70
2023/07/19 04:21:04;;;;;;;0.80;0.80;;;16.00;99.90;;;;;;5073390;28;20062;-72
2023/07/19 04:23:29;;;;;;;1.45;1.05;;;16.00;99.90;;;;;;5088642;28;20040;-72
2023/07/19 04:25:55;;;;;;;1.05;0.95;;;16.00;99.90;;;;;;5080404;28;20067;-72
2023/07/19 04:28:21;;;;;;;1.42;0.98;;;16.00;99.90;;;;;;5087378;28;20109;-71
2023/07/19 04:30:46;;;;;;;0.63;0.63;;;16.00;99.90;;;;;;5069773;28;20046;-72
2023/07/19 04:33:13;;;;;;;0.95;0.80;;;16.00;99.90;;;;;;5071696;28;20083;-72
2023/07/19 04:35:40;;;;;;;1.48;1.10;;;16.00;99.90;;;;;;5070560;28;20048;-72
2023/07/19 04:38:06;;;;;;;1.23;1.00;;;16.00;99.90;;;;;;5082884;28;20122;-72
2023/07/19 04:40:31;;;;;;;1.45;0.82;;;16.00;99.90;;;;;;5081038;28;20123;-72
2023/07/19 04:42:58;;;;;;;1.45;1.10;;;16.00;99.90;;;;;;5085629;28;20147;-72
2023/07/19 04:45:25;;;;;;;0.85;0.85;;;16.10;99.90;;;;;;5080752;28;20040;-73
2023/07/19 04:47:50;;;;;;;1.35;0.90;;;16.10;99.90;;;;;;5111673;27;20500;-73
2023/07/19 04:50:16;;;;;;;1.77;1.38;;;16.10;99.90;;;;;;5110370;28;20072;-72
2023/07/19 04:52:45;;;;;;;2.05;1.70;;;16.10;99.90;;;;;;5072251;28;20047;-72
2023/07/19 04:55:11;;;;;;;2.40;1.50;;;16.10;99.90;;;;;;5093513;28;20055;-72
2023/07/19 04:57:37;;;;;;;;;;;16.10;99.90;;;;;;5083936;28;20049;-73
2023/07/19 05:00:05;;;;;;;1.65;1.33;;;16.10;99.90;;;;;;5065850;28;19919;-73
2023/07/19 05:02:31;;;;;;;1.60;1.23;;;16.00;99.90;;;;;;5091302;28;20120;-73
2023/07/19 05:04:56;;;;;;;;;;;16.00;99.90;;;;;;5098496;28;20130;-73
2023/07/19 05:07:22;;;;;;;2.72;2.08;;;16.00;99.90;;;;;;5088543;28;20324;-73
2023/07/19 05:09:48;;;;;;;2.85;1.92;;;16.10;99.90;;;;;;5070747;28;20040;-73
2023/07/19 05:12:13;;;;;;;4.38;2.45;;;16.10;99.90;;;;;;5087309;28;20048;-73
2023/07/19 05:14:39;;;;;;;2.88;2.30;;;16.10;99.90;;;;;;5068533;28;20339;-74
2023/07/19 05:17:05;;;;;;;2.60;2.03;;;16.10;99.90;;;;;;5079005;28;20111;-72
2023/07/19 05:19:31;;;;;;;2.25;1.70;;;16.10;99.90;;;;;;5088108;28;20058;-72
2023/07/19 05:21:56;;;;;;;2.25;1.83;;;16.20;99.90;;;;;;5088207;28;20460;-71
2023/07/19 05:24:22;;;;;;;1.83;1.60;;;16.20;99.90;;;;;;5071169;28;20386;-71
2023/07/19 05:26:48;;;;;;;2.55;1.60;;;16.20;99.90;;;;;;5088638;28;20048;-72
2023/07/19 05:29:14;;;;;;;1.92;1.55;;;16.30;99.90;;;;;;5084304;28;20533;-71
2023/07/19 05:31:40;;;;;;;2.17;1.50;;;16.30;99.90;;;;;;5063071;28;20427;-71
2023/07/19 05:34:07;;;;;;;2.00;1.40;;;16.30;99.90;;;;;;5072176;28;20048;-71
2023/07/19 05:36:34;;;;;;;2.67;2.03;;;16.40;99.90;;;;;;5088259;28;20048;-71
2023/07/19 05:39:01;;;;;;;3.38;2.00;;;16.40;99.90;;;;;;5121864;27;20047;-71
2023/07/19 05:41:27;;;;;;;2.33;1.73;;;16.40;99.90;;;;;;5095841;28;20040;-71
2023/07/19 05:43:53;;;;;;;1.83;1.40;;;16.40;99.90;;;;;;5087707;28;20047;-71
2023/07/19 05:46:19;;;;;;;3.90;2.20;;;16.50;99.90;;;;;;5089155;28;20467;-71
2023/07/19 05:48:45;;;;;;;3.58;2.42;;;16.50;99.90;;;;;;5086878;28;20051;-72
2023/07/19 05:51:11;;;;;;;3.78;2.50;;;16.50;99.90;;;;;;5069218;28;20417;-72
2023/07/19 05:53:37;;;;;;;2.65;1.88;;;16.50;99.00;;;;;;5085585;28;20053;-72
2023/07/19 05:56:03;;;;;;;2.08;1.83;;;16.50;97.40;;;;;;5087087;28;20040;-71
2023/07/19 05:58:30;;;;;;;3.28;2.50;;;16.50;99.90;;;;;;5109679;27;20052;-72
2023/07/19 06:00:56;;;;;;;2.35;1.63;;;16.50;89.20;;;;;;5089731;28;20044;-72
2023/07/19 06:03:22;;;;;;;3.92;2.25;;;16.60;95.80;;;;;;5074282;28;20055;-72
2023/07/19 06:05:50;;;;;;;4.68;2.33;;;16.60;29.30;;;;;;5093154;28;20093;-72
2023/07/19 06:08:16;;;;;;;3.80;2.42;;;16.60;1.00;;;;;;5125539;27;20496;-72
2023/07/19 06:10:42;;;;;;;3.60;2.05;;;16.60;2.70;;;;;;5106097;28;20047;-72
2023/07/19 06:13:08;;;;;;;3.47;2.15;;;16.60;61.60;;;;;;5091600;28;20074;-71
2023/07/19 06:15:34;;;;;;;3.90;2.22;;;16.50;99.90;;;;;;5074613;28;20101;-72
2023/07/19 06:18:00;;;;;;;3.35;2.15;;;16.50;99.90;;;;;;5091193;28;20036;-71
2023/07/19 06:20:27;;;;;;;4.07;2.00;;;16.40;99.90;;;;;;5091260;28;20434;-71
2023/07/19 06:22:52;;;;;;;4.43;2.00;;;16.30;99.90;;;;;;5091387;28;20598;-72
2023/07/19 06:25:18;;;;;;;3.90;1.70;;;16.30;99.90;;;;;;5090924;28;20064;-71
2023/07/19 06:27:44;;;;;;;3.83;1.85;;;16.20;99.90;;;;;;5074408;28;20394;-72
2023/07/19 06:30:11;;;;;;;2.65;1.48;;;16.20;99.90;;;;;;5090906;28;20047;-71
2023/07/19 06:32:37;;;;;;;3.05;1.50;;;16.20;99.90;;;;;;5090952;28;20487;-71
2023/07/19 06:35:03;;;;;;;;;;;16.20;99.90;;;;;;5091471;28;20042;-71
2023/07/19 06:37:28;;;;;;;2.88;1.58;;;16.20;99.90;;;;;;5090675;28;19927;-71
2023/07/19 06:39:54;;;;;;;3.13;1.42;;;16.30;99.90;;;;;;5124874;27;20048;-72
2023/07/19 06:42:20;;;;;;;2.80;1.10;;;16.30;31.70;;;;;;5107858;27;20048;-72
2023/07/19 06:44:47;;;;;;;5.78;1.80;;;16.40;26.30;;;;;;5090685;28;20044;-71
2023/07/19 06:47:14;;;;;;;3.38;1.27;;;16.40;4.70;;;;;;5090601;28;20044;-72
2023/07/19 06:49:41;;;;;;;4.78;1.90;;;16.40;90.60;;;;;;5091111;28;20055;-72
2023/07/19 06:52:07;;;;;;;3.40;1.50;;;16.50;98.00;;;;;;5090423;28;20048;-72
2023/07/19 06:54:33;;;;;;;4.00;1.80;;;16.50;65.40;;;;;;5090777;28;20123;-72
2023/07/19 06:56:59;;;;;;;2.17;1.00;;;16.50;76.40;;;;;;5090654;28;20134;-71
2023/07/19 06:59:26;;;;;;;2.10;1.40;;;16.50;99.90;;;;;;5090316;28;20043;-72
2023/07/19 07:01:52;;;;;;;3.78;1.83;;;16.60;99.90;;;;;;5089591;28;20055;-72
2023/07/19 07:04:18;;;;;;;3.40;1.42;;;16.60;99.90;;;;;;5089027;28;20373;-72
2023/07/19 07:06:43;;;;;;;2.42;1.42;;;16.70;99.90;;;;;;5072600;28;20051;-72
2023/07/19 07:09:09;;;;;;;4.82;2.53;;;16.80;99.90;;;;;;5090949;28;20062;-72
2023/07/19 07:11:35;;;;;;;4.72;2.08;;;16.80;99.90;;;;;;5090277;28;20047;-72
2023/07/19 07:14:00;;;;;;;3.08;1.77;;;16.90;99.90;;;;;;5124389;27;20089;-72
2023/07/19 07:16:28;;;;;;;5.25;1.98;;;17.00;99.90;;;;;;5107220;28;20048;-72
2023/07/19 07:18:54;;;;;;;3.60;1.65;;;17.00;99.90;;;;;;5073360;28;20101;-72
2023/07/19 07:21:19;;;;;;;3.97;1.60;;;17.10;99.90;;;;;;5090169;28;20040;-72
2023/07/19 07:23:45;;;;;;;2.47;1.20;;;17.10;95.50;;;;;;5124236;27;20461;-72
2023/07/19 07:26:11;;;;;;;2.22;1.52;;;17.20;85.70;;;;;;5089777;28;20397;-72
2023/07/19 07:28:37;;;;;;;;;;;17.20;1.00;;;;;;5107335;28;20067;-72
2023/07/19 07:31:06;;;;;;;4.90;1.30;;;17.20;99.90;;;;;;5089509;28;19939;-72
2023/07/19 07:33:32;;;;;;;3.42;1.30;;;17.30;99.90;;;;;;5091252;28;20054;-72
2023/07/19 07:35:58;;;;;;;3.40;1.20;;;17.20;99.90;;;;;;5090949;28;20165;-72
2023/07/19 07:38:23;;;;;;;;;;;17.20;99.90;;;;;;5090140;28;20593;-72
2023/07/19 07:40:49;;;;;;;2.15;1.10;;;17.20;99.90;;;;;;5073168;28;19945;-72
2023/07/19 07:43:15;;;;;;;1.92;1.15;;;17.30;99.90;;;;;;5089536;28;20492;-71
2023/07/19 07:45:40;;;;;;;3.00;1.42;;;17.30;99.90;;;;;;5123656;27;20048;-72
2023/07/19 07:48:06;;;;;;;2.67;1.00;;;17.40;96.80;;;;;;5089499;28;20039;-72
2023/07/19 07:50:32;;;;;;;;;;;17.50;1.00;;;;;;5091313;28;20047;-72
2023/07/19 07:52:58;;;;;;;3.50;1.10;;;17.50;1.00;;;;;;5106801;28;19916;-72
2023/07/19 07:55:24;;;;;;;3.33;1.10;;;17.60;1.00;;;;;;5089625;28;20055;-72
2023/07/19 07:57:49;;;;;;;;;;;17.80;1.00;;;;;;5073270;28;20044;-71
2023/07/19 08:00:17;;;;;;;3.13;1.10;;;17.70;1.00;;;;;;5089832;28;20253;-72
2023/07/19 08:02:43;;;;;;;2.40;1.00;;;17.70;99.90;;;;;;5089275;28;20142;-72
2023/07/19 08:05:09;;;;;;;;;;;17.70;99.90;;;;;;5089766;28;20143;-71
2023/07/19 08:07:35;;;;;;;2.08;1.00;;;17.60;99.90;;;;;;5089561;28;19916;-71
2023/07/19 08:10:01;;;;;;;;;;;17.70;99.90;;;;;;5089885;28;20047;-72
2023/07/19 08:12:26;;;;;;;3.92;1.30;;;17.80;99.90;;;;;;5123448;27;19920;-72
2023/07/19 08:14:52;;;;;;;;;;;17.80;1.00;;;;;;5089650;28;20427;-72
2023/07/19 08:17:18;;;;;;;3.30;1.15;;;17.80;39.10;;;;;;5089401;28;19926;-72
2023/07/19 08:19:43;;;;;;;5.32;1.17;;;17.70;1.00;;;;;;5106219;28;20044;-72
2023/07/19 08:22:25;;;;;;;3.40;1.17;;;17.80;93.10;;;;;;5122561;27;20400;-72
2023/07/19 08:24:51;;;;;;;2.63;0.90;;;17.80;92.50;;;;;;5088900;28;20036;-72
2023/07/19 08:27:16;;;;;;;;;;;18.10;99.90;;;;;;5089502;28;20469;-72
2023/07/19 08:29:42;;;;;;;1.50;0.80;;;18.50;48.80;;;;;;5088917;28;19916;-72
2023/07/19 08:32:08;;;;;;;1.80;0.90;;;18.90;99.90;;;;;;5122984;27;20438;-72
2023/07/19 08:34:33;;;;;;;;;;;18.90;99.90;;;;;;5089553;28;20056;-72
2023/07/19 08:37:00;;;;;;;2.90;1.40;;;19.00;99.90;;;;;;5088818;28;20244;-72
2023/07/19 08:39:27;;;;;;;3.78;1.17;;;18.90;99.90;;;;;;5090417;28;20413;-72
2023/07/19 08:41:53;;;;;;;2.80;0.98;;;18.90;99.90;;;;;;5088935;28;20048;-73
2023/07/19 08:44:22;;;;;;;2.35;0.77;;;18.80;99.90;;;;;;5072229;28;20048;-73
2023/07/19 08:46:49;;;;;;;2.35;0.82;;;19.20;99.90;;;;;;5072451;28;20044;-72
2023/07/19 08:49:18;;;;;;;2.63;0.80;;;19.30;99.90;;;;;;5074853;28;20048;-73
2023/07/19 08:51:45;;;;;;;2.38;1.00;;;19.50;99.90;;;;;;5089070;28;20115;-75
2023/07/19 08:54:12;;;;;;;2.30;0.90;;;19.70;99.90;;;;;;5088830;28;20085;-73
2023/07/19 08:56:38;;;;;;;1.42;0.77;;;19.80;99.90;;;;;;5088657;28;20040;-72
2023/07/19 08:59:05;;;;;;;3.20;1.30;;;20.00;99.90;;;;;;5088900;28;20155;-73
2023/07/19 09:01:31;;;;;;;1.63;0.80;;;19.70;99.90;;;;;;5122897;28;20044;-73
2023/07/19 09:03:57;;;;;;;2.45;1.00;;;19.80;99.90;;;;;;5088587;28;20136;-73
2023/07/19 09:06:30;;;;;;;;;;;19.60;99.90;;;;;;5123435;28;20123;-73
2023/07/19 09:08:56;;;;;;;3.50;1.00;;;19.40;1.00;;;;;;5088514;28;20364;-73
2023/07/19 09:11:25;;;;;;;2.70;0.80;;;19.00;58.90;;;;;;5068705;28;20103;-73
2023/07/19 09:13:55;;;;;;;1.85;1.00;;;18.70;99.90;;;;;;5088810;28;20048;-72
2023/07/19 09:16:32;;;;;;;3.58;1.20;;;18.70;99.90;;;;;;5105943;28;20050;-73
2023/07/19 09:18:59;;;;;;;2.08;0.73;;;18.80;99.90;;;;;;5088859;28;20035;-73
2023/07/19 09:21:44;;;;;;;1.85;0.90;;;19.10;99.90;;;;;;5088343;28;20051;-73
2023/07/19 09:24:11;;;;;;;3.92;1.30;;;19.20;82.20;;;;;;5090003;28;20048;-73
2023/07/19 09:26:50;;;;;;;1.20;0.60;;;19.10;1.00;;;;;;5071586;28;20076;-73
2023/07/19 09:29:18;;;;;;;2.65;1.00;;;19.00;99.90;;;;;;5088490;28;20067;-73
2023/07/19 09:31:58;;;;;;;3.95;1.08;;;19.00;99.90;;;;;;5105614;28;20055;-73
2023/07/19 09:34:29;;;;;;;2.08;1.15;;;18.90;1.00;;;;;;5092271;28;20142;-73
2023/07/19 09:36:55;;;;;;;2.30;0.90;;;19.10;89.10;;;;;;5090134;28;20442;-73
2023/07/19 09:39:22;;;;;;;2.65;1.00;;;19.20;13.10;;;;;;5091106;28;20049;-73
2023/07/19 09:41:48;;;;;;;5.93;1.08;;;19.30;99.90;;;;;;5092857;28;20508;-73
2023/07/19 09:44:15;;;;;;;;;;;19.30;99.90;;;;;;5092462;28;20075;-73
2023/07/19 09:46:43;;;;;;;;;;;19.30;1.00;;;;;;5093208;28;20324;-73
2023/07/19 09:49:08;;;;;;;;;;;19.10;1.00;;;;;;5093836;28;20279;-73
2023/07/19 09:51:34;;;;;;;;;;;19.00;96.20;;;;;;5092445;28;19924;-73
2023/07/19 09:54:00;;;;;;;;;;;18.60;61.20;;;;;;5092398;28;19923;-73
2023/07/19 09:56:26;;;;;;;;;;;18.60;99.90;;;;;;5109557;28;19920;-73
2023/07/19 09:58:53;;;;;;;;;;;18.70;99.90;;;;;;5092307;28;19920;-73
2023/07/19 10:01:19;;;;;;;;;;;19.10;99.90;;;;;;5091557;28;20006;-73
2023/07/19 10:03:45;;;;;;;;;;;19.20;1.00;;;;;;5092058;28;20378;-73
2023/07/19 10:06:12;;;;;;;;;;;19.50;1.00;;;;;;5109070;28;19919;-73
2023/07/19 10:08:38;;;;;;;;;;;19.50;99.90;;;;;;5075197;28;19927;-73
2023/07/19 10:11:03;;;;;;;;;;;19.50;99.90;;;;;;5125703;27;19924;-73
2023/07/19 10:13:30;;;;;;;;;;;19.00;99.90;;;;;;5092173;28;19922;-73
2023/07/19 10:15:55;;;;;;;;;;;18.70;99.90;;;;;;5092288;28;19998;-73
2023/07/19 10:18:21;;;;;;;;;;;18.60;1.00;;;;;;5092194;28;20402;-73
2023/07/19 10:20:58;;;;;;;;;;;18.50;99.90;;;;;;5093212;28;19920;-73
2023/07/19 10:23:24;;;;;;;;;;;18.40;99.90;;;;;;5096072;28;19959;-73
2023/07/19 10:25:50;;;;;;;;;;;18.50;99.90;;;;;;5092373;28;20337;-73
2023/07/19 10:28:25;;;;;;;;;;;18.80;99.90;;;;;;5091755;28;20323;-74
2023/07/19 10:30:54;;;;;;;;;;;19.30;94.90;;;;;;5091894;28;19920;-73
2023/07/19 10:33:21;;;;;;;;;;;19.20;99.90;;;;;;5091649;28;19916;-73
2023/07/19 10:35:51;;;;;;;;;;;19.20;1.00;;;;;;5091961;28;19916;-73
2023/07/19 10:38:18;;;;;;;;;;;18.80;1.00;;;;;;5091973;28;20403;-73
2023/07/19 10:40:45;;;;;;;;;;;18.60;1.00;;;;;;5126257;27;19920;-73
2023/07/19 10:43:11;;;;;;;;;;;18.60;1.00;;;;;;5092013;28;19981;-73
2023/07/19 10:45:37;;;;;;;;;;;18.40;58.60;;;;;;5090713;28;20356;-73
2023/07/19 10:48:03;;;;;;;;;;;18.30;99.90;;;;;;5093131;28;19965;-73
2023/07/19 10:50:29;;;;;;;;;;;18.40;99.90;;;;;;5091579;28;19916;-72
2023/07/19 10:52:55;;;;;;;;;;;18.70;99.90;;;;;;5091709;28;19923;-73
2023/07/19 10:55:20;;;;;;;;;;;18.80;99.90;;;;;;5108387;28;19920;-73
2023/07/19 10:57:46;;;;;;;;;;;19.10;99.90;;;;;;5091611;28;20031;-73
2023/07/19 11:00:12;;;;;;;;;;;19.10;99.90;;;;;;5071121;28;19977;-73
2023/07/19 11:02:41;;;;;;;;;;;19.20;99.90;;;;;;5089531;28;19954;-73
2023/07/19 11:05:07;;;;;;;;;;;19.20;48.30;;;;;;5091414;28;19927;-72
2023/07/19 11:07:33;;;;;;;;;;;19.40;99.90;;;;;;5074188;28;20369;-73
2023/07/19 11:09:59;;;;;;;;;;;19.70;99.90;;;;;;5108579;28;19915;-73
2023/07/19 11:12:25;;;;;;;;;;;19.80;1.00;;;;;;5074143;28;19967;-72
2023/07/19 11:14:58;;;;;;;;;;;19.60;1.00;;;;;;5089369;28;20416;-72
2023/07/19 11:17:25;;;;;;;;;;;19.60;99.90;;;;;;5088118;28;20406;-72
2023/07/19 11:19:50;;;;;;;;;;;19.40;1.00;;;;;;5091200;28;20348;-72
2023/07/19 11:22:20;;;;;;;;;;;19.80;99.90;;;;;;5090163;28;19951;-72
2023/07/19 11:24:46;;;;;;;;;;;20.40;99.90;;;;;;5086337;28;19919;-72
2023/07/19 11:27:12;;;;;;;;;;;20.60;99.90;;;;;;5088285;28;20422;-73
2023/07/19 11:29:37;;;;;;;;;;;20.50;99.90;;;;;;5089013;28;20260;-74
2023/07/19 11:32:23;;;;;;;;;;;20.20;99.90;;;;;;5088590;28;19920;-75
2023/07/19 11:34:56;;;;;;;;;;;20.20;99.90;;;;;;5088612;28;20353;-75
2023/07/19 11:37:21;;;;;;;;;;;20.60;99.90;;;;;;5076861;28;19928;-74
2023/07/19 11:39:48;;;;;;;;;;;20.80;99.90;;;;;;5089292;28;20422;-73
2023/07/19 11:42:14;;;;;;;;;;;21.00;99.90;;;;;;5071688;28;20445;-73
2023/07/19 11:44:43;;;;;;;;;;;21.10;34.70;;;;;;5089857;28;19920;-73
2023/07/19 11:47:09;;;;;;;;;;;21.10;94.20;;;;;;5089994;28;19971;-74
2023/07/19 11:49:35;;;;;;;;;;;21.30;1.00;;;;;;5089854;28;20300;-74
2023/07/19 11:52:01;;;;;;;;;;;21.20;1.00;;;;;;5089024;28;19920;-74
2023/07/19 11:54:27;;;;;;;;;;;21.40;10.20;;;;;;5098940;28;20018;-74
2023/07/19 11:56:53;;;;;;;;;;;21.70;1.00;;;;;;5091103;28;19946;-74
2023/07/19 11:59:18;;;;;;;;;;;21.80;1.00;;;;;;5087252;28;19920;-74
2023/07/19 12:01:44;;;;;;;;;;;21.80;1.00;;;;;;5072217;28;20304;-74
2023/07/19 12:04:10;;;;;;;;;;;22.20;1.00;;;;;;5089372;28;19928;-74
2023/07/19 12:06:35;;;;;;;;;;;21.90;1.00;;;;;;5090135;28;20312;-74
2023/07/19 12:09:01;;;;;;;;;;;21.40;1.00;;;;;;5089285;28;19958;-74
2023/07/19 12:11:27;;;;;;;;;;;20.90;1.00;;;;;;5089510;28;19961;-74
2023/07/19 12:13:56;;;;;;;;;;;20.90;1.00;;;;;;5089494;28;19915;-74
2023/07/19 12:16:22;;;;;;;;;;;21.10;1.00;;;;;;5086110;28;20367;-73
2023/07/19 12:18:48;;;;;;;;;;;21.40;1.00;;;;;;5089481;28;19967;-73
2023/07/19 12:21:13;;;;;;;;;;;21.20;1.00;;;;;;5092699;28;19927;-73
2023/07/19 12:23:39;;;;;;;;;;;21.00;1.00;;;;;;5089765;28;20007;-73
2023/07/19 12:26:05;;;;;;;;;;;21.00;99.90;;;;;;5090765;28;20357;-74
2023/07/19 12:28:30;;;;;;;;;;;21.00;1.00;;;;;;5084181;28;19916;-74
2023/07/19 12:30:56;;;;;;;;;;;20.90;1.00;;;;;;5088951;28;19927;-74
2023/07/19 12:33:22;;;;;;;;;;;21.00;1.00;;;;;;5090169;28;20002;-74
2023/07/19 12:35:48;;;;;;;;;;;21.10;99.90;;;;;;5090696;28;20447;-74
2023/07/19 12:38:14;;;;;;;;;;;21.40;99.90;;;;;;5081439;28;20274;-75
2023/07/19 12:40:40;;;;;;;;;;;21.30;99.90;;;;;;5122074;27;20261;-73
2023/07/19 12:43:06;;;;;;;;;;;21.50;99.90;;;;;;5069144;28;20375;-74
2023/07/19 12:45:32;;;;;;;;;;;21.60;99.90;;;;;;5088718;28;19919;-74
2023/07/19 12:47:58;;;;;;;;;;;21.30;99.90;;;;;;5101863;28;19920;-74
2023/07/19 12:50:24;;;;;;;;;;;21.30;99.90;;;;;;5088164;28;19959;-74
2023/07/19 12:52:51;;;;;;;;;;;21.60;99.90;;;;;;5089369;28;19955;-74
2023/07/19 12:55:17;;;;;;;;;;;21.80;99.90;;;;;;5090232;28;19999;-75
2023/07/19 12:57:42;;;;;;;;;;;21.80;99.90;;;;;;5088441;28;20404;-74
2023/07/19 13:00:13;;;;;;;;;;;21.90;99.90;;;;;;5106049;28;20347;-74
2023/07/19 13:02:39;;;;;;;;;;;21.80;99.90;;;;;;5115034;28;19955;-73
2023/07/19 13:05:05;;;;;;;;;;;21.90;99.90;;;;;;5087346;28;19963;-74
2023/07/19 13:07:31;;;;;;;;;;;21.80;99.90;;;;;;5089492;28;20337;-73
2023/07/19 13:09:56;;;;;;;;;;;21.60;99.90;;;;;;5091923;28;20003;-73
2023/07/19 13:12:22;;;;;;;;;;;21.70;99.90;;;;;;5075015;28;19981;-73
2023/07/19 13:14:50;;;;;;;;;;;21.90;99.90;;;;;;5123167;27;19969;-73